Myra, West Virginia
Current Conditions -  °F | °C
As of 12:51 AM on Wednesday 22 Oct 2014 (Local Time) from KHTS Reporting Station
Overcast Overcast  
Wind Chill:   Ceiling: 4600
Heat Index:   Visibility: 10mi
Dew Point:   Wind: 3mph
Humidity: 86%   Direction: 350°N
Pressure: 30.12"   Gusts: NA
Location:  38.22°N, 82.11°W
Report Text: KHTS 220451Z 35003KT 10SM OVC046 07/05 A3012 RMK AO2 SLP201 T00720050 401280072
Loading
Personal Weather Stations






























Interactive Weather Map
Tropical Storm Tracking
New forecast layout! Learn more

10-Day Weather Forecast

Advertisements
Track Severe Weather on mobile